createdAt,value
2022-10-09T00:05:13.909Z,5.70
2022-10-09T00:10:40.886Z,5.60
2022-10-09T00:16:04.887Z,5.40
2022-10-09T00:21:32.288Z,5.15
2022-10-09T00:26:53.967Z,5.93
2022-10-09T00:32:16.164Z,6.03
2022-10-09T00:37:37.873Z,6.78
2022-10-09T00:42:59.891Z,7.07
2022-10-09T00:48:22.618Z,6.40
2022-10-09T00:53:44.338Z,6.88
2022-10-09T00:59:06.969Z,6.03
2022-10-09T01:04:28.681Z,5.78
2022-10-09T01:09:58.893Z,5.72
2022-10-09T01:15:30.434Z,5.78
2022-10-09T01:21:05.059Z,5.53
2022-10-09T01:26:50.799Z,5.35
2022-10-09T01:32:17.505Z,4.93
2022-10-09T01:37:42.216Z,4.95
2022-10-09T01:43:04.222Z,5.30
2022-10-09T01:48:26.668Z,5.57
2022-10-09T01:53:51.113Z,5.33
2022-10-09T01:59:18.615Z,5.55
2022-10-09T02:04:43.536Z,5.60
2022-10-09T02:10:06.602Z,6.07
2022-10-09T02:15:35.818Z,5.97
2022-10-09T02:21:05.591Z,6.07
2022-10-09T02:26:27.569Z,5.95
2022-10-09T02:31:49.396Z,5.35
2022-10-09T02:37:11.140Z,6.13
2022-10-09T02:42:32.830Z,5.72
2022-10-09T02:47:54.581Z,5.25
2022-10-09T02:53:16.362Z,5.20
2022-10-09T02:58:39.651Z,5.00
2022-10-09T03:04:01.514Z,5.65
2022-10-09T03:09:23.540Z,5.05
2022-10-09T03:14:45.227Z,5.10
2022-10-09T03:20:07.812Z,4.72
2022-10-09T03:25:29.708Z,5.63
2022-10-09T03:30:51.872Z,4.55
2022-10-09T03:36:13.607Z,4.90
2022-10-09T03:41:35.320Z,4.53
2022-10-09T03:46:57.091Z,4.72
2022-10-09T03:52:18.795Z,4.50
2022-10-09T03:57:40.492Z,4.75
2022-10-09T04:03:02.356Z,4.43
2022-10-09T04:08:24.122Z,4.47
2022-10-09T04:13:45.900Z,4.75
2022-10-09T04:19:07.620Z,4.80
2022-10-09T04:24:29.439Z,4.80
2022-10-09T04:29:51.137Z,4.80
2022-10-09T04:35:12.841Z,4.70
2022-10-09T04:40:34.533Z,5.30
2022-10-09T04:45:56.335Z,5.22
2022-10-09T04:51:18.681Z,5.00
2022-10-09T04:56:40.458Z,5.03
2022-10-09T05:02:02.234Z,4.63
2022-10-09T05:07:24.852Z,4.70
2022-10-09T05:12:46.862Z,5.10
2022-10-09T05:18:08.769Z,4.40
2022-10-09T05:23:32.725Z,4.88
2022-10-09T05:28:54.570Z,4.53
2022-10-09T05:34:16.448Z,5.05
2022-10-09T05:39:39.343Z,4.80
2022-10-09T05:45:01.038Z,4.30
2022-10-09T05:50:22.868Z,4.35
2022-10-09T05:55:44.557Z,4.53
2022-10-09T06:01:06.398Z,4.50
2022-10-09T06:06:31.477Z,4.30
2022-10-09T06:11:54.647Z,5.23
2022-10-09T06:17:16.482Z,4.37
2022-10-09T06:22:38.193Z,4.32
2022-10-09T06:27:59.964Z,4.40
2022-10-09T06:33:21.684Z,4.63
2022-10-09T06:38:44.289Z,4.60
2022-10-09T06:44:16.071Z,4.28
2022-10-09T06:49:38.480Z,4.67
2022-10-09T06:55:01.353Z,4.57
2022-10-09T07:00:23.066Z,4.77
2022-10-09T07:05:44.799Z,4.97
2022-10-09T07:11:15.398Z,5.10
2022-10-09T07:16:40.362Z,4.40
2022-10-09T07:22:02.061Z,4.53
2022-10-09T07:27:23.878Z,4.80
2022-10-09T07:32:45.881Z,4.72
2022-10-09T07:38:08.188Z,4.35
2022-10-09T07:43:31.386Z,4.67
2022-10-09T07:48:53.486Z,4.57
2022-10-09T07:54:15.254Z,4.70
2022-10-09T07:59:36.953Z,4.78
2022-10-09T08:04:58.644Z,4.73
2022-10-09T08:10:20.720Z,4.88
2022-10-09T08:15:44.046Z,5.40
2022-10-09T08:21:12.328Z,5.90
2022-10-09T08:26:34.134Z,5.63
2022-10-09T08:31:55.879Z,5.10
2022-10-09T08:37:17.587Z,5.27
2022-10-09T08:42:47.882Z,5.53
2022-10-09T08:48:18.958Z,4.60
2022-10-09T08:53:50.212Z,4.95
2022-10-09T08:59:12.276Z,4.53
2022-10-09T09:04:58.549Z,4.35
2022-10-09T09:10:37.253Z,4.40
2022-10-09T09:16:15.610Z,3.42
2022-10-09T09:21:53.906Z,3.60
2022-10-09T09:27:28.725Z,3.60
2022-10-09T09:33:11.805Z,3.10
2022-10-09T09:38:33.633Z,3.47
2022-10-09T09:43:55.365Z,3.00
2022-10-09T09:49:23.459Z,2.83
2022-10-09T09:54:48.853Z,2.08
2022-10-09T10:00:16.635Z,2.13
2022-10-09T10:05:39.682Z,2.30
2022-10-09T10:11:05.232Z,2.58
2022-10-09T10:16:29.156Z,2.40
2022-10-09T10:21:59.437Z,2.17
2022-10-09T10:27:34.949Z,1.92
2022-10-09T10:33:14.857Z,2.20
2022-10-09T10:38:55.239Z,2.00
2022-10-09T10:44:33.329Z,10.32
2022-10-09T10:49:55.516Z,5.93
2022-10-09T10:55:26.209Z,1.90
2022-10-09T11:00:55.629Z,1.50
2022-10-09T11:06:37.981Z,1.60
2022-10-09T11:12:19.627Z,1.80
2022-10-09T11:18:04.569Z,1.70
2022-10-09T11:23:49.853Z,1.90
2022-10-09T11:29:21.938Z,1.73
2022-10-09T11:35:11.867Z,1.60
2022-10-09T11:40:38.402Z,1.95
2022-10-09T11:46:21.686Z,1.40
2022-10-09T11:52:02.967Z,1.50
2022-10-09T11:57:29.721Z,1.50
2022-10-09T12:02:59.888Z,1.30
2022-10-09T12:08:27.201Z,1.27
2022-10-09T12:13:52.692Z,1.58
2022-10-09T12:19:38.049Z,1.60
2022-10-09T12:25:06.339Z,1.38
2022-10-09T12:30:37.018Z,1.35
2022-10-09T12:36:31.010Z,1.30
2022-10-09T12:41:57.196Z,1.52
2022-10-09T12:47:23.380Z,1.27
2022-10-09T12:53:06.389Z,1.13
2022-10-09T12:58:36.693Z,1.40
2022-10-09T13:04:03.429Z,1.40
2022-10-09T13:09:37.564Z,1.52
2022-10-09T13:15:05.986Z,1.20
2022-10-09T13:20:32.543Z,1.25
2022-10-09T13:25:54.526Z,1.30
2022-10-09T13:31:18.425Z,1.55
2022-10-09T13:36:40.443Z,1.25
2022-10-09T13:42:02.968Z,1.40
2022-10-09T13:47:25.000Z,1.45
2022-10-09T13:52:46.834Z,1.20
2022-10-09T13:58:08.551Z,1.15
2022-10-09T14:03:30.264Z,1.42
2022-10-09T14:08:52.722Z,1.30
2022-10-09T14:14:14.478Z,1.80
2022-10-09T14:19:36.203Z,1.30
2022-10-09T14:24:57.932Z,1.48
2022-10-09T14:30:19.795Z,1.50
2022-10-09T14:35:41.595Z,1.35
2022-10-09T14:41:03.709Z,1.58
2022-10-09T14:46:27.422Z,1.20
2022-10-09T14:51:49.110Z,1.38
2022-10-09T14:57:10.818Z,1.50
2022-10-09T15:02:32.571Z,1.40
2022-10-09T15:07:54.326Z,1.85
2022-10-09T15:13:16.054Z,1.88
2022-10-09T15:18:37.773Z,1.52
2022-10-09T15:24:01.142Z,1.50
2022-10-09T15:29:23.283Z,1.70
2022-10-09T15:34:45.025Z,1.95
2022-10-09T15:40:07.378Z,2.10
2022-10-09T15:45:29.172Z,1.85
2022-10-09T15:50:53.545Z,2.28
2022-10-09T15:56:18.541Z,2.40
2022-10-09T16:01:40.366Z,2.60
2022-10-09T16:07:02.201Z,2.00
2022-10-09T16:12:23.931Z,2.30
2022-10-09T16:17:45.748Z,2.58
2022-10-09T16:23:08.730Z,2.63
2022-10-09T16:28:31.119Z,2.60
2022-10-09T16:33:53.086Z,2.40
2022-10-09T16:39:14.881Z,3.25
2022-10-09T16:44:36.606Z,3.30
2022-10-09T16:49:58.348Z,3.53
2022-10-09T16:55:20.182Z,3.22
2022-10-09T17:00:41.945Z,3.00
2022-10-09T17:06:08.151Z,2.90
2022-10-09T17:11:30.539Z,3.30
2022-10-09T17:16:52.286Z,3.40
2022-10-09T17:22:14.304Z,3.67
2022-10-09T17:27:36.083Z,3.50
2022-10-09T17:32:58.357Z,3.97
2022-10-09T17:38:20.093Z,3.90
2022-10-09T17:43:41.865Z,4.65
2022-10-09T17:49:04.155Z,4.47
2022-10-09T17:54:26.038Z,4.55
2022-10-09T17:59:47.786Z,4.65
2022-10-09T18:05:09.557Z,4.43
2022-10-09T18:10:31.607Z,4.45
2022-10-09T18:15:53.745Z,4.43
2022-10-09T18:21:17.136Z,4.15
2022-10-09T18:26:39.796Z,4.72
2022-10-09T18:32:01.506Z,4.60
2022-10-09T18:37:23.882Z,3.83
2022-10-09T18:42:45.618Z,4.28
2022-10-09T18:48:08.532Z,4.10
2022-10-09T18:53:31.894Z,3.80
2022-10-09T18:58:53.930Z,3.88
2022-10-09T19:04:15.960Z,3.80
2022-10-09T19:09:37.721Z,4.38
2022-10-09T19:14:59.440Z,4.13
2022-10-09T19:20:21.218Z,4.60
2022-10-09T19:25:51.187Z,4.05
2022-10-09T19:31:14.004Z,4.13
2022-10-09T19:36:36.815Z,5.80
2022-10-09T19:41:58.686Z,4.60
2022-10-09T19:47:21.702Z,4.85
2022-10-09T19:52:46.797Z,3.90
2022-10-09T19:58:09.406Z,4.60
2022-10-09T20:03:31.146Z,4.45
2022-10-09T20:08:52.992Z,4.70
2022-10-09T20:14:14.766Z,5.03
2022-10-09T20:19:36.591Z,5.45
2022-10-09T20:24:58.312Z,4.85
2022-10-09T20:30:20.052Z,5.03
2022-10-09T20:35:43.173Z,5.45
2022-10-09T20:41:07.429Z,5.45
2022-10-09T20:46:31.478Z,5.32
2022-10-09T20:51:53.250Z,5.18
2022-10-09T20:57:15.079Z,4.40
2022-10-09T21:02:36.833Z,4.05
2022-10-09T21:07:58.548Z,3.67
2022-10-09T21:13:20.375Z,3.70
2022-10-09T21:18:42.098Z,4.22
2022-10-09T21:24:04.112Z,5.38
2022-10-09T21:29:27.003Z,4.28
2022-10-09T21:34:50.450Z,3.75
2022-10-09T21:40:12.142Z,4.35
2022-10-09T21:45:33.905Z,4.25
2022-10-09T21:50:56.689Z,4.13
2022-10-09T21:56:18.468Z,4.75
2022-10-09T22:01:40.282Z,4.70
2022-10-09T22:07:02.024Z,4.32
2022-10-09T22:12:23.797Z,4.68
2022-10-09T22:17:45.532Z,5.43
2022-10-09T22:23:08.303Z,4.68
2022-10-09T22:28:30.503Z,4.05
2022-10-09T22:34:01.957Z,4.30
2022-10-09T22:39:23.705Z,4.82
2022-10-09T22:44:45.447Z,4.55
2022-10-09T22:50:07.648Z,4.88
2022-10-09T22:55:29.338Z,4.30
2022-10-09T23:00:51.621Z,4.93
2022-10-09T23:06:16.841Z,4.25
2022-10-09T23:11:38.633Z,4.55
2022-10-09T23:17:00.394Z,4.57
2022-10-09T23:22:22.078Z,4.53
2022-10-09T23:27:43.770Z,5.20
2022-10-09T23:33:05.634Z,4.85
2022-10-09T23:38:27.385Z,5.30
2022-10-09T23:43:50.121Z,4.88
2022-10-09T23:49:11.918Z,5.90
2022-10-09T23:54:33.631Z,5.15
2022-10-09T23:59:55.410Z,5.40
